createdAt,value
2022-08-09T00:00:36.485Z,4.64
2022-08-09T00:01:43.175Z,5.14
2022-08-09T00:02:49.773Z,4.99
2022-08-09T00:04:00.165Z,4.25
2022-08-09T00:05:02.904Z,4.41
2022-08-09T00:06:17.448Z,4.68
2022-08-09T00:07:03.917Z,4.23
2022-08-09T00:08:10.031Z,4.57
2022-08-09T00:09:14.002Z,4.26
2022-08-09T00:10:27.082Z,4.33
2022-08-09T00:12:02.854Z,5.36
2022-08-09T00:12:34.583Z,4.71
2022-08-09T00:13:38.336Z,4.89
2022-08-09T00:14:41.142Z,4.52
2022-08-09T00:15:58.671Z,4.69
2022-08-09T00:16:50.881Z,5.15
2022-08-09T00:18:05.547Z,5.52
2022-08-09T00:18:57.778Z,4.65
2022-08-09T00:20:00.592Z,4.62
2022-08-09T00:21:07.988Z,5.23
2022-08-09T00:22:09.420Z,5.10
2022-08-09T00:23:57.426Z,4.98
2022-08-09T00:24:18.360Z,5.27
2022-08-09T00:25:23.026Z,5.05
2022-08-09T00:26:32.213Z,5.17
2022-08-09T00:27:36.311Z,4.90
2022-08-09T00:28:38.700Z,4.82
2022-08-09T00:30:25.750Z,5.81
2022-08-09T00:30:45.363Z,5.30
2022-08-09T00:31:58.528Z,4.71
2022-08-09T00:32:52.218Z,5.01
2022-08-09T00:33:55.481Z,5.02
2022-08-09T00:34:58.739Z,5.68
2022-08-09T00:36:02.459Z,4.58
2022-08-09T00:37:04.852Z,4.75
2022-08-09T00:38:09.420Z,5.08
2022-08-09T00:40:09.379Z,4.63
2022-08-09T00:40:19.847Z,4.75
2022-08-09T00:44:10.788Z,4.62
2022-08-09T00:44:12.946Z,5.36
2022-08-09T00:44:15.929Z,5.41
2022-08-09T00:44:35.705Z,5.52
2022-08-09T00:45:47.482Z,4.90
2022-08-09T00:46:56.622Z,4.71
2022-08-09T00:47:48.463Z,4.93
2022-08-09T00:48:50.728Z,4.93
2022-08-09T00:49:56.496Z,4.78
2022-08-09T00:51:01.554Z,4.61
2022-08-09T00:52:17.422Z,5.76
2022-08-09T00:53:11.782Z,4.97
2022-08-09T00:54:16.374Z,5.01
2022-08-09T00:56:03.831Z,4.55
2022-08-09T00:56:24.427Z,5.11
2022-08-09T00:57:34.748Z,4.21
2022-08-09T00:58:32.541Z,4.19
2022-08-09T00:59:41.677Z,4.74
2022-08-09T01:00:42.956Z,5.20
2022-08-09T01:01:48.193Z,4.46
2022-08-09T01:03:07.005Z,4.88
2022-08-09T01:04:22.300Z,5.16
2022-08-09T01:05:53.534Z,4.72
2022-08-09T01:07:13.895Z,4.44
2022-08-09T01:08:36.926Z,4.61
2022-08-09T01:09:55.471Z,4.76
2022-08-09T01:11:04.797Z,4.64
2022-08-09T01:13:59.971Z,4.77
2022-08-09T01:15:16.592Z,3.79
2022-08-09T01:16:16.020Z,4.29
2022-08-09T01:17:40.473Z,4.87
2022-08-09T01:18:47.572Z,4.78
2022-08-09T01:20:08.960Z,4.54
2022-08-09T01:21:44.648Z,4.94
2022-08-09T01:22:51.229Z,4.66
2022-08-09T01:24:05.233Z,4.02
2022-08-09T01:25:26.487Z,4.79
2022-08-09T01:26:46.442Z,4.61
2022-08-09T01:27:57.027Z,4.62
2022-08-09T01:29:03.250Z,4.18
2022-08-09T01:30:08.718Z,3.72
2022-08-09T01:32:29.845Z,5.07
2022-08-09T01:32:34.136Z,3.91
2022-08-09T01:33:41.003Z,4.16
2022-08-09T01:34:44.332Z,4.31
2022-08-09T01:35:51.680Z,3.82
2022-08-09T01:36:57.253Z,4.56
2022-08-09T01:38:09.272Z,3.95
2022-08-09T01:39:08.598Z,3.97
2022-08-09T01:40:22.906Z,4.59
2022-08-09T01:41:34.711Z,3.93
2022-08-09T01:42:38.989Z,3.71
2022-08-09T01:43:51.600Z,4.07
2022-08-09T01:44:53.063Z,3.71
2022-08-09T01:45:57.994Z,3.71
2022-08-09T01:47:03.404Z,4.43
2022-08-09T01:48:08.252Z,3.89
2022-08-09T01:49:15.935Z,3.84
2022-08-09T01:50:29.987Z,4.37
2022-08-09T01:51:27.708Z,4.16
2022-08-09T01:52:34.630Z,4.28
2022-08-09T01:53:41.798Z,3.94
2022-08-09T01:54:47.027Z,3.63
2022-08-09T01:55:53.425Z,4.05
2022-08-09T01:57:03.950Z,3.59
2022-08-09T01:58:06.138Z,3.79
2022-08-09T01:59:16.072Z,4.09
2022-08-09T02:00:19.275Z,4.06
2022-08-09T02:01:57.706Z,4.25
2022-08-09T02:02:31.429Z,4.10
2022-08-09T02:03:36.746Z,4.47
2022-08-09T02:04:45.447Z,4.04
2022-08-09T02:06:03.187Z,3.98
2022-08-09T02:06:58.940Z,4.05
2022-08-09T02:08:38.674Z,4.59
2022-08-09T02:09:07.967Z,4.32
2022-08-09T02:10:29.860Z,4.27
2022-08-09T02:11:42.826Z,3.88
2022-08-09T02:12:34.565Z,3.99
2022-08-09T02:13:40.673Z,4.36
2022-08-09T02:14:44.924Z,3.97
2022-08-09T02:15:51.926Z,3.56
2022-08-09T02:17:15.166Z,4.28
2022-08-09T02:18:10.314Z,3.80
2022-08-09T02:19:07.536Z,4.48
2022-08-09T02:20:11.751Z,3.94
2022-08-09T02:21:22.356Z,3.41
2022-08-09T02:22:48.857Z,4.02
2022-08-09T02:23:54.590Z,3.56
2022-08-09T02:25:00.201Z,3.48
2022-08-09T02:26:04.217Z,4.11
2022-08-09T02:27:08.901Z,3.58
2022-08-09T02:28:20.692Z,3.47
2022-08-09T02:29:28.472Z,3.87
2022-08-09T02:30:42.870Z,3.61
2022-08-09T02:31:47.093Z,3.81
2022-08-09T02:32:51.124Z,4.01
2022-08-09T02:34:06.789Z,3.67
2022-08-09T02:35:17.146Z,3.27
2022-08-09T02:36:12.332Z,3.42
2022-08-09T02:37:17.800Z,3.43
2022-08-09T02:38:28.844Z,3.42
2022-08-09T02:39:39.762Z,3.68
2022-08-09T02:40:43.197Z,3.52
2022-08-09T02:41:49.245Z,3.42
2022-08-09T02:42:56.040Z,4.02
2022-08-09T02:44:10.442Z,3.58
2022-08-09T02:45:30.562Z,3.96
2022-08-09T02:46:37.658Z,4.27
2022-08-09T02:47:57.239Z,4.07
2022-08-09T02:48:51.156Z,3.97
2022-08-09T02:50:01.483Z,3.57
2022-08-09T02:51:05.822Z,3.55
2022-08-09T02:53:31.518Z,4.21
2022-08-09T02:54:51.232Z,3.79
2022-08-09T02:55:53.750Z,3.54
2022-08-09T02:56:56.890Z,3.80
2022-08-09T02:58:00.646Z,3.76
2022-08-09T02:59:05.144Z,4.09
2022-08-09T03:00:25.435Z,3.73
2022-08-09T03:01:21.905Z,3.83
2022-08-09T03:02:21.837Z,3.69
2022-08-09T03:04:12.576Z,3.84
2022-08-09T03:04:30.725Z,4.31
2022-08-09T03:05:34.144Z,4.19
2022-08-09T03:06:38.284Z,3.89
2022-08-09T03:07:43.133Z,4.23
2022-08-09T03:08:49.227Z,4.28
2022-08-09T03:09:56.405Z,4.06
2022-08-09T03:10:59.405Z,3.85
2022-08-09T03:12:10.438Z,3.82
2022-08-09T03:13:09.939Z,4.14
2022-08-09T03:14:14.406Z,3.56
2022-08-09T03:15:19.419Z,4.04
2022-08-09T03:16:23.802Z,3.88
2022-08-09T03:17:27.880Z,3.50
2022-08-09T03:18:31.604Z,3.45
2022-08-09T03:19:59.454Z,3.28
2022-08-09T03:20:40.939Z,3.39
2022-08-09T03:21:50.809Z,3.67
2022-08-09T03:22:56.950Z,3.74
2022-08-09T03:24:03.874Z,3.94
2022-08-09T03:25:06.415Z,3.56
2022-08-09T03:26:05.554Z,3.31
2022-08-09T03:27:09.019Z,3.34
2022-08-09T03:28:12.176Z,3.54
2022-08-09T03:29:22.926Z,3.33
2022-08-09T03:30:30.196Z,3.33
2022-08-09T03:31:26.919Z,3.16
2022-08-09T03:32:32.547Z,3.19
2022-08-09T03:33:54.139Z,2.92
2022-08-09T03:34:43.301Z,3.61
2022-08-09T03:36:12.401Z,3.22
2022-08-09T03:36:58.471Z,3.07
2022-08-09T03:37:58.723Z,2.99
2022-08-09T03:39:01.199Z,3.23
2022-08-09T03:40:06.377Z,3.12
2022-08-09T03:41:15.029Z,2.71
2022-08-09T03:42:19.290Z,2.85
2022-08-09T03:43:24.801Z,2.54
2022-08-09T03:44:31.994Z,2.63
2022-08-09T03:46:05.019Z,3.22
2022-08-09T03:46:38.091Z,3.37
2022-08-09T03:47:46.519Z,2.81
2022-08-09T03:48:52.664Z,3.08
2022-08-09T03:49:58.207Z,2.69
2022-08-09T03:51:03.486Z,2.57
2022-08-09T03:52:07.152Z,2.51
2022-08-09T03:53:10.914Z,2.95
2022-08-09T03:54:15.100Z,2.51
2022-08-09T03:55:18.899Z,2.69
2022-08-09T03:56:24.274Z,2.86
2022-08-09T03:57:27.513Z,2.19
2022-08-09T03:58:32.582Z,2.18
2022-08-09T03:59:42.926Z,2.59
2022-08-09T04:00:42.313Z,2.50
2022-08-09T04:01:45.608Z,2.54
2022-08-09T04:02:48.856Z,2.47
2022-08-09T04:04:01.221Z,2.46
2022-08-09T04:05:01.440Z,2.47
2022-08-09T04:06:05.995Z,2.14
2022-08-09T04:07:11.208Z,2.26
2022-08-09T04:08:13.302Z,2.62
2022-08-09T04:09:47.957Z,2.04
2022-08-09T04:10:29.209Z,2.01
2022-08-09T04:11:29.804Z,2.58
2022-08-09T04:14:54.055Z,2.10
2022-08-09T04:15:11.130Z,2.01
2022-08-09T04:16:20.915Z,2.39
2022-08-09T04:17:14.119Z,2.00
2022-08-09T04:18:19.372Z,2.14
2022-08-09T04:19:30.085Z,2.26
2022-08-09T04:20:29.010Z,2.32
2022-08-09T04:21:36.363Z,2.02
2022-08-09T04:22:36.614Z,2.34
2022-08-09T04:23:40.730Z,1.72
2022-08-09T04:24:45.176Z,1.88
2022-08-09T04:25:51.913Z,2.01
2022-08-09T04:26:52.911Z,2.22
2022-08-09T04:27:55.218Z,2.04
2022-08-09T04:29:03.690Z,1.52
2022-08-09T04:30:04.531Z,2.25
2022-08-09T04:31:09.269Z,2.09
2022-08-09T04:32:11.283Z,1.92
2022-08-09T04:33:15.520Z,1.84
2022-08-09T04:34:18.829Z,1.73
2022-08-09T04:35:22.169Z,1.94
2022-08-09T04:36:30.338Z,1.63
2022-08-09T04:37:45.769Z,1.61
2022-08-09T04:38:37.739Z,2.04
2022-08-09T04:39:41.001Z,2.04
2022-08-09T04:40:43.887Z,2.11
2022-08-09T04:41:48.360Z,1.39
2022-08-09T04:42:51.930Z,2.11
2022-08-09T04:44:06.602Z,1.92
2022-08-09T04:45:00.966Z,1.69
2022-08-09T04:46:03.433Z,2.02
2022-08-09T04:47:06.763Z,1.75
2022-08-09T04:48:10.592Z,1.77
2022-08-09T04:49:14.832Z,2.10
2022-08-09T04:50:19.667Z,1.62
2022-08-09T04:51:23.329Z,1.66
2022-08-09T04:52:28.485Z,1.64
2022-08-09T04:53:31.503Z,1.45
2022-08-09T04:54:34.210Z,1.48
2022-08-09T04:55:57.334Z,1.42
2022-08-09T04:56:42.915Z,1.71
2022-08-09T04:57:59.150Z,1.54
2022-08-09T04:58:50.834Z,1.49
2022-08-09T04:59:54.658Z,1.34
2022-08-09T05:00:57.625Z,1.48
2022-08-09T05:02:02.986Z,1.46
2022-08-09T05:03:30.287Z,1.24
2022-08-09T05:04:09.939Z,1.15
2022-08-09T05:05:12.543Z,1.26
2022-08-09T05:06:26.744Z,1.07
2022-08-09T05:07:24.506Z,1.73
2022-08-09T05:08:26.929Z,1.33
2022-08-09T05:09:42.213Z,1.21
2022-08-09T05:10:36.704Z,0.98
2022-08-09T05:11:39.340Z,1.36
2022-08-09T05:12:43.875Z,1.91
2022-08-09T05:13:46.274Z,1.21
2022-08-09T05:14:50.480Z,1.32
2022-08-09T05:15:56.852Z,1.10
2022-08-09T05:16:59.702Z,1.24
2022-08-09T05:18:42.622Z,1.21
2022-08-09T05:19:07.687Z,0.98
2022-08-09T05:20:12.800Z,1.39
2022-08-09T05:21:22.857Z,1.22
2022-08-09T05:22:35.109Z,1.11
2022-08-09T05:23:54.625Z,1.45
2022-08-09T05:24:29.196Z,1.14
2022-08-09T05:25:32.444Z,1.00
2022-08-09T05:26:35.349Z,1.22
2022-08-09T05:27:45.581Z,1.22
2022-08-09T05:28:45.192Z,1.03
2022-08-09T05:29:47.724Z,1.34
2022-08-09T05:30:52.134Z,0.96
2022-08-09T05:31:57.085Z,1.11
2022-08-09T05:32:59.015Z,1.41
2022-08-09T05:34:01.573Z,1.50
2022-08-09T05:35:04.955Z,1.38
2022-08-09T05:36:07.570Z,1.09
2022-08-09T05:37:11.472Z,1.47
2022-08-09T05:38:22.043Z,0.98
2022-08-09T05:39:28.428Z,1.26
2022-08-09T05:40:23.397Z,1.30
2022-08-09T05:41:26.371Z,1.39
2022-08-09T05:42:29.705Z,1.28
2022-08-09T05:43:32.473Z,1.56
2022-08-09T05:44:35.747Z,1.31
2022-08-09T05:45:53.025Z,1.44
2022-08-09T05:46:43.163Z,1.31
2022-08-09T05:47:51.823Z,1.44
2022-08-09T05:48:59.067Z,1.34
2022-08-09T05:50:24.121Z,1.54
2022-08-09T05:51:16.686Z,1.28
2022-08-09T05:52:04.182Z,1.10
2022-08-09T05:53:11.803Z,1.16
2022-08-09T05:54:13.212Z,1.76
2022-08-09T05:55:20.573Z,1.46
2022-08-09T05:56:22.347Z,1.44
2022-08-09T05:57:56.419Z,1.28
2022-08-09T05:58:30.747Z,1.11
2022-08-09T05:59:33.030Z,1.14
2022-08-09T06:00:36.490Z,1.03
2022-08-09T06:01:42.668Z,1.30
2022-08-09T06:02:46.866Z,1.28
2022-08-09T06:03:58.439Z,1.23
2022-08-09T06:04:55.817Z,1.06
2022-08-09T06:06:05.939Z,1.16
2022-08-09T06:07:03.494Z,1.31
2022-08-09T06:08:08.133Z,1.98
2022-08-09T06:09:40.669Z,1.45
2022-08-09T06:10:15.843Z,1.38
2022-08-09T06:11:19.980Z,1.17
2022-08-09T06:12:27.587Z,1.45
2022-08-09T06:13:33.920Z,1.22
2022-08-09T06:14:33.849Z,1.32
2022-08-09T06:15:36.358Z,1.47
2022-08-09T06:16:38.806Z,1.55
2022-08-09T06:17:43.934Z,1.12
2022-08-09T06:18:51.328Z,0.99
2022-08-09T06:19:55.270Z,1.16
2022-08-09T06:21:04.145Z,2.06
2022-08-09T06:22:14.988Z,1.09
2022-08-09T06:23:12.049Z,1.25
2022-08-09T06:24:15.931Z,0.83
2022-08-09T06:25:18.370Z,0.77
2022-08-09T06:26:28.553Z,1.34
2022-08-09T06:27:42.216Z,0.97
2022-08-09T06:28:32.770Z,0.94
2022-08-09T06:29:48.298Z,0.97
2022-08-09T06:30:39.785Z,0.77
2022-08-09T06:32:08.904Z,0.99
2022-08-09T06:33:00.680Z,0.93
2022-08-09T06:33:56.639Z,0.77
2022-08-09T06:35:00.694Z,0.74
2022-08-09T06:36:03.773Z,0.81
2022-08-09T06:37:08.128Z,0.86
2022-08-09T06:38:12.420Z,0.70
2022-08-09T06:39:16.606Z,0.94
2022-08-09T06:40:23.972Z,0.88
2022-08-09T06:42:00.467Z,0.78
2022-08-09T06:42:30.852Z,0.79
2022-08-09T06:43:34.549Z,0.66
2022-08-09T06:44:38.344Z,1.00
2022-08-09T06:46:05.558Z,0.86
2022-08-09T06:46:45.535Z,0.96
2022-08-09T06:47:47.884Z,0.75
2022-08-09T06:48:50.256Z,0.87
2022-08-09T06:50:13.505Z,0.92
2022-08-09T06:50:59.096Z,0.81
2022-08-09T06:52:01.296Z,0.85
2022-08-09T06:53:03.598Z,1.07
2022-08-09T06:54:09.210Z,0.71
2022-08-09T06:55:13.928Z,0.87
2022-08-09T06:56:17.746Z,0.94
2022-08-09T06:57:20.404Z,0.67
2022-08-09T07:00:47.193Z,0.84
2022-08-09T07:00:49.543Z,1.15
2022-08-09T07:00:51.428Z,1.07
2022-08-09T07:01:57.740Z,1.02
2022-08-09T07:02:44.854Z,1.25
2022-08-09T07:03:53.163Z,0.99
2022-08-09T07:04:53.218Z,1.02
2022-08-09T07:06:02.870Z,0.89
2022-08-09T07:07:04.737Z,1.21
2022-08-09T07:08:06.108Z,0.79
2022-08-09T07:09:53.710Z,0.88
2022-08-09T07:10:24.427Z,0.96
2022-08-09T07:11:23.726Z,0.96
2022-08-09T07:12:38.029Z,1.41
2022-08-09T07:13:29.665Z,1.84
2022-08-09T07:14:35.011Z,0.94
2022-08-09T07:16:34.945Z,0.90
2022-08-09T07:16:49.792Z,1.25
2022-08-09T07:17:56.233Z,0.96
2022-08-09T07:18:53.074Z,0.81
2022-08-09T07:19:58.426Z,1.20
2022-08-09T07:21:04.184Z,1.24
2022-08-09T07:22:10.708Z,1.10
2022-08-09T07:23:18.874Z,0.95
2022-08-09T07:24:17.682Z,1.07
2022-08-09T07:25:19.993Z,0.81
2022-08-09T07:26:27.702Z,1.03
2022-08-09T07:27:34.246Z,0.82
2022-08-09T07:28:37.676Z,0.99
2022-08-09T07:29:42.812Z,0.76
2022-08-09T07:30:46.200Z,0.98
2022-08-09T07:31:50.406Z,0.96
2022-08-09T07:32:55.051Z,1.26
2022-08-09T07:33:58.399Z,0.88
2022-08-09T07:35:10.741Z,0.69
2022-08-09T07:36:15.537Z,1.13
2022-08-09T07:37:19.518Z,1.01
2022-08-09T07:38:31.061Z,1.02
2022-08-09T07:39:40.536Z,0.72
2022-08-09T07:41:08.181Z,0.87
2022-08-09T07:41:43.661Z,0.95
2022-08-09T07:42:58.403Z,0.91
2022-08-09T07:44:01.063Z,0.77
2022-08-09T07:45:06.557Z,0.80
2022-08-09T07:46:10.169Z,1.16
2022-08-09T07:47:16.270Z,0.74
2022-08-09T07:48:22.604Z,0.80
2022-08-09T07:49:23.159Z,0.63
2022-08-09T07:50:32.963Z,1.18
2022-08-09T07:52:05.815Z,0.82
2022-08-09T07:52:36.067Z,0.74
2022-08-09T07:54:05.179Z,0.98
2022-08-09T07:54:45.543Z,0.79
2022-08-09T07:56:03.250Z,0.82
2022-08-09T07:56:55.882Z,0.41
2022-08-09T07:57:58.469Z,0.75
2022-08-09T07:59:01.222Z,0.65
2022-08-09T08:00:09.010Z,0.69
2022-08-09T08:01:11.375Z,0.70
2022-08-09T08:02:19.302Z,0.63
2022-08-09T08:03:18.979Z,0.68
2022-08-09T08:04:31.373Z,0.84
2022-08-09T08:05:27.905Z,1.08
2022-08-09T08:06:32.691Z,0.91
2022-08-09T08:08:44.649Z,0.97
2022-08-09T08:09:02.218Z,1.41
2022-08-09T08:09:51.575Z,0.78
2022-08-09T08:10:49.147Z,0.74
2022-08-09T08:12:10.819Z,0.71
2022-08-09T08:12:57.753Z,0.78
2022-08-09T08:13:59.993Z,1.04
2022-08-09T08:15:02.551Z,0.87
2022-08-09T08:16:05.679Z,0.49
2022-08-09T08:17:12.428Z,0.58
2022-08-09T08:18:16.255Z,0.76
2022-08-09T08:19:18.633Z,0.50
2022-08-09T08:20:30.343Z,0.48
2022-08-09T08:21:31.557Z,0.54
2022-08-09T08:22:34.263Z,0.43
2022-08-09T08:23:38.205Z,0.64
2022-08-09T08:24:44.857Z,0.60
2022-08-09T08:25:54.198Z,0.64
2022-08-09T08:26:56.201Z,0.57
2022-08-09T08:27:56.875Z,0.86
2022-08-09T08:29:00.391Z,0.81
2022-08-09T08:30:05.976Z,0.54
2022-08-09T08:31:15.091Z,0.65
2022-08-09T08:32:13.262Z,0.74
2022-08-09T08:33:24.363Z,0.68
2022-08-09T08:34:25.594Z,0.69
2022-08-09T08:35:37.088Z,0.58
2022-08-09T08:36:31.034Z,0.80
2022-08-09T08:37:41.164Z,0.89
2022-08-09T08:38:37.824Z,0.70
2022-08-09T08:39:44.279Z,0.80
2022-08-09T08:40:49.507Z,0.92
2022-08-09T08:41:52.342Z,0.68
2022-08-09T08:42:55.877Z,0.74
2022-08-09T08:44:03.393Z,0.83
2022-08-09T08:45:13.446Z,0.56
2022-08-09T08:46:33.337Z,0.78
2022-08-09T08:47:19.232Z,0.87
2022-08-09T08:48:23.806Z,0.78
2022-08-09T08:49:46.917Z,0.67
2022-08-09T08:50:38.765Z,0.69
2022-08-09T08:51:41.841Z,0.94
2022-08-09T08:53:00.012Z,0.67
2022-08-09T08:54:03.566Z,0.60
2022-08-09T08:55:01.250Z,0.72
2022-08-09T08:56:06.429Z,0.53
2022-08-09T08:57:11.627Z,0.88
2022-08-09T08:58:15.201Z,0.83
2022-08-09T08:59:20.622Z,0.68
2022-08-09T09:00:29.714Z,0.80
2022-08-09T09:01:45.067Z,0.80
2022-08-09T09:02:35.392Z,0.60
2022-08-09T09:03:38.671Z,0.86
2022-08-09T09:04:48.116Z,0.90
2022-08-09T09:05:58.457Z,0.59
2022-08-09T09:06:56.152Z,0.83
2022-08-09T09:07:58.892Z,0.68
2022-08-09T09:09:06.626Z,0.80
2022-08-09T09:10:10.329Z,0.80
2022-08-09T09:11:17.874Z,0.57
2022-08-09T09:12:19.720Z,0.81
2022-08-09T09:13:24.092Z,1.01
2022-08-09T09:14:30.665Z,1.04
2022-08-09T09:15:33.582Z,0.98
2022-08-09T09:16:36.331Z,0.74
2022-08-09T09:17:48.443Z,0.73
2022-08-09T09:18:48.148Z,0.72
2022-08-09T09:19:47.523Z,0.61
2022-08-09T09:20:51.522Z,0.90
2022-08-09T09:22:07.695Z,0.71
2022-08-09T09:23:14.181Z,0.91
2022-08-09T09:24:21.527Z,0.51
2022-08-09T09:26:04.209Z,0.62
2022-08-09T09:26:48.503Z,0.60
2022-08-09T09:28:06.150Z,0.72
2022-08-09T09:29:03.335Z,0.73
2022-08-09T09:30:32.990Z,0.69
2022-08-09T09:32:03.585Z,0.78
2022-08-09T09:32:34.471Z,0.74
2022-08-09T09:33:44.612Z,0.71
2022-08-09T09:34:38.377Z,1.09
2022-08-09T09:36:02.189Z,0.56
2022-08-09T09:37:04.563Z,0.67
2022-08-09T09:38:07.070Z,0.73
2022-08-09T09:39:11.347Z,0.77
2022-08-09T09:40:14.244Z,1.00
2022-08-09T09:41:32.556Z,0.75
2022-08-09T09:42:32.686Z,0.66
2022-08-09T09:43:41.579Z,0.66
2022-08-09T09:44:40.622Z,0.74
2022-08-09T09:48:05.874Z,0.64
2022-08-09T09:49:14.655Z,0.86
2022-08-09T09:50:17.879Z,0.47
2022-08-09T09:51:26.130Z,0.71
2022-08-09T09:52:37.290Z,0.76
2022-08-09T09:53:57.612Z,0.83
2022-08-09T09:54:38.474Z,0.58
2022-08-09T09:56:04.397Z,0.55
2022-08-09T09:58:01.070Z,0.59
2022-08-09T09:58:25.416Z,0.64
2022-08-09T09:59:35.360Z,0.62
2022-08-09T10:00:41.899Z,0.39
2022-08-09T10:01:48.288Z,0.56
2022-08-09T10:02:50.816Z,0.62
2022-08-09T10:03:57.199Z,0.75
2022-08-09T10:05:07.750Z,1.18
2022-08-09T10:06:13.700Z,0.57
2022-08-09T10:07:27.009Z,0.72
2022-08-09T10:08:31.314Z,0.74
2022-08-09T10:09:49.044Z,0.80
2022-08-09T10:10:53.346Z,0.99
2022-08-09T10:12:11.708Z,0.94
2022-08-09T10:13:03.419Z,0.78
2022-08-09T10:14:08.894Z,1.18
2022-08-09T10:15:17.575Z,0.93
2022-08-09T10:16:57.632Z,0.99
2022-08-09T10:17:50.631Z,1.00
2022-08-09T10:18:54.225Z,0.82
2022-08-09T10:19:57.410Z,1.13
2022-08-09T10:21:09.290Z,0.59
2022-08-09T10:22:12.045Z,0.66
2022-08-09T10:23:21.879Z,0.66
2022-08-09T10:24:25.691Z,0.78
2022-08-09T10:25:34.499Z,0.57
2022-08-09T10:26:33.694Z,0.66
2022-08-09T10:27:38.954Z,0.79
2022-08-09T10:28:45.493Z,0.50
2022-08-09T10:30:34.162Z,0.57
2022-08-09T10:32:38.168Z,0.69
2022-08-09T10:33:01.383Z,0.66
2022-08-09T10:34:10.129Z,0.57
2022-08-09T10:35:13.338Z,1.13
2022-08-09T10:36:17.400Z,0.58
2022-08-09T10:37:23.301Z,0.69
2022-08-09T10:38:54.284Z,0.75
2022-08-09T10:39:40.724Z,0.60
2022-08-09T10:40:40.976Z,0.72
2022-08-09T10:41:43.709Z,0.85
2022-08-09T10:42:46.364Z,0.85
2022-08-09T10:43:59.864Z,1.37
2022-08-09T10:45:01.990Z,0.52
2022-08-09T10:48:17.022Z,0.86
2022-08-09T10:50:09.899Z,1.07
2022-08-09T10:51:15.126Z,0.86
2022-08-09T10:52:30.583Z,0.88
2022-08-09T10:53:46.817Z,0.97
2022-08-09T10:54:46.716Z,0.91
2022-08-09T10:55:58.216Z,0.65
2022-08-09T10:57:08.511Z,0.74
2022-08-09T10:58:29.418Z,0.65
2022-08-09T10:59:31.892Z,0.60
2022-08-09T11:01:11.065Z,0.50
2022-08-09T11:03:13.479Z,0.69
2022-08-09T11:03:16.282Z,0.72
2022-08-09T11:04:20.064Z,0.78
2022-08-09T11:05:25.451Z,0.92
2022-08-09T11:06:23.231Z,1.07
2022-08-09T11:07:55.054Z,0.57
2022-08-09T11:09:52.607Z,0.99
2022-08-09T11:10:56.482Z,1.22
2022-08-09T11:12:17.384Z,1.26
2022-08-09T11:13:21.716Z,1.51
2022-08-09T11:14:33.069Z,1.04
2022-08-09T11:15:50.615Z,0.89
2022-08-09T11:16:47.052Z,1.03
2022-08-09T11:17:56.777Z,0.92
2022-08-09T11:18:56.984Z,0.97
2022-08-09T11:20:10.079Z,0.60
2022-08-09T11:21:09.708Z,0.61
2022-08-09T11:23:58.299Z,0.75
2022-08-09T11:25:10.350Z,0.83
2022-08-09T11:26:40.854Z,0.83
2022-08-09T11:28:04.929Z,0.75
2022-08-09T11:28:57.386Z,1.07
2022-08-09T11:30:05.906Z,0.72
2022-08-09T11:31:34.157Z,1.01
2022-08-09T11:32:47.405Z,1.10
2022-08-09T11:33:55.139Z,1.03
2022-08-09T11:34:59.026Z,0.98
2022-08-09T11:36:01.485Z,1.49
2022-08-09T11:37:07.409Z,1.11
2022-08-09T11:38:22.261Z,1.14
2022-08-09T11:39:25.521Z,1.11
2022-08-09T11:40:31.583Z,1.08
2022-08-09T11:41:38.338Z,0.98
2022-08-09T11:42:43.857Z,1.19
2022-08-09T11:43:53.142Z,1.01
2022-08-09T11:44:57.243Z,0.91
2022-08-09T11:46:03.089Z,0.96
2022-08-09T11:47:05.414Z,0.70
2022-08-09T11:48:24.732Z,0.80
2022-08-09T11:49:42.807Z,0.99
2022-08-09T11:51:19.219Z,0.80
2022-08-09T11:53:02.417Z,0.96
2022-08-09T11:53:21.170Z,0.72
2022-08-09T11:54:28.039Z,0.81
2022-08-09T11:55:52.284Z,1.01
2022-08-09T11:56:48.035Z,1.13
2022-08-09T11:58:00.405Z,0.84
2022-08-09T11:58:58.832Z,0.61
2022-08-09T12:00:09.327Z,1.38
2022-08-09T12:01:37.403Z,0.96
2022-08-09T12:02:37.413Z,0.80
2022-08-09T12:03:55.640Z,1.07
2022-08-09T12:04:28.690Z,2.08
2022-08-09T12:05:39.599Z,1.51
2022-08-09T12:06:55.978Z,1.37
2022-08-09T12:07:58.481Z,1.12
2022-08-09T12:09:05.041Z,1.24
2022-08-09T12:10:31.876Z,0.99
2022-08-09T12:11:15.549Z,1.32
2022-08-09T12:12:20.426Z,1.28
2022-08-09T12:14:07.673Z,1.10
2022-08-09T12:15:03.580Z,0.88
2022-08-09T12:15:50.443Z,1.02
2022-08-09T12:16:47.029Z,0.77
2022-08-09T12:17:53.489Z,1.14
2022-08-09T12:18:56.199Z,0.91
2022-08-09T12:19:59.327Z,0.90
2022-08-09T12:21:26.231Z,0.80
2022-08-09T12:22:09.575Z,0.84
2022-08-09T12:23:12.860Z,0.77
2022-08-09T12:24:25.852Z,0.88
2022-08-09T12:26:39.902Z,0.80
2022-08-09T12:28:58.372Z,1.17
2022-08-09T12:29:14.955Z,1.06
2022-08-09T12:29:59.984Z,0.91
2022-08-09T12:31:11.186Z,0.86
2022-08-09T12:32:14.073Z,1.01
2022-08-09T12:33:19.906Z,0.81
2022-08-09T12:34:36.174Z,0.82
2022-08-09T12:35:40.085Z,0.80
2022-08-09T12:36:59.028Z,1.21
2022-08-09T12:37:59.073Z,1.08
2022-08-09T12:39:02.287Z,0.83
2022-08-09T12:40:10.413Z,0.91
2022-08-09T12:41:13.214Z,0.84
2022-08-09T12:42:16.394Z,0.75
2022-08-09T12:43:21.090Z,0.80
2022-08-09T12:44:25.612Z,0.86
2022-08-09T12:45:33.822Z,0.82
2022-08-09T12:46:34.483Z,0.98
2022-08-09T12:47:45.086Z,0.88
2022-08-09T12:48:44.153Z,1.08
2022-08-09T12:49:52.823Z,0.68
2022-08-09T12:50:52.078Z,1.16
2022-08-09T12:52:02.006Z,0.73
2022-08-09T12:53:17.415Z,0.70
2022-08-09T12:54:06.973Z,0.65
2022-08-09T12:56:15.951Z,0.99
2022-08-09T12:56:36.999Z,0.66
2022-08-09T12:57:46.168Z,0.82
2022-08-09T12:59:11.934Z,0.67
2022-08-09T13:00:25.460Z,0.72
2022-08-09T13:01:26.711Z,0.78
2022-08-09T13:02:34.298Z,1.21
2022-08-09T13:03:53.168Z,0.73
2022-08-09T13:04:49.762Z,0.85
2022-08-09T13:06:14.299Z,0.86
2022-08-09T13:07:09.814Z,0.86
2022-08-09T13:08:21.177Z,0.97
2022-08-09T13:09:30.543Z,0.62
2022-08-09T13:10:34.736Z,0.92
2022-08-09T13:11:43.498Z,0.71
2022-08-09T13:13:08.880Z,0.72
2022-08-09T13:14:42.958Z,0.68
2022-08-09T13:15:07.552Z,0.82
2022-08-09T13:16:12.724Z,0.72
2022-08-09T13:17:44.221Z,0.95
2022-08-09T13:18:27.216Z,0.84
2022-08-09T13:20:07.600Z,0.71
2022-08-09T13:21:20.595Z,0.62
2022-08-09T13:22:36.730Z,0.68
2022-08-09T13:23:01.510Z,0.91
2022-08-09T13:24:42.603Z,0.72
2022-08-09T13:25:12.065Z,1.01
2022-08-09T13:27:55.468Z,1.13
2022-08-09T13:29:08.689Z,0.67
2022-08-09T13:30:51.176Z,0.84
2022-08-09T13:32:15.071Z,0.59
2022-08-09T13:32:48.606Z,0.78
2022-08-09T13:33:53.745Z,0.79
2022-08-09T13:34:55.144Z,0.69
2022-08-09T13:36:38.818Z,0.83
2022-08-09T13:37:05.751Z,0.82
2022-08-09T13:38:32.892Z,0.83
2022-08-09T13:41:19.118Z,0.81
2022-08-09T13:41:46.792Z,0.73
2022-08-09T13:41:58.265Z,0.79
2022-08-09T13:42:30.941Z,0.76
2022-08-09T13:43:35.900Z,0.75
2022-08-09T13:44:38.616Z,0.98
2022-08-09T13:46:44.396Z,0.89
2022-08-09T13:47:27.027Z,1.01
2022-08-09T13:47:58.413Z,0.86
2022-08-09T13:48:55.943Z,0.91
2022-08-09T13:50:02.160Z,0.85
2022-08-09T13:51:05.013Z,1.13
2022-08-09T13:52:09.719Z,0.49
2022-08-09T13:53:12.577Z,1.02
2022-08-09T13:54:15.250Z,1.02
2022-08-09T13:55:20.929Z,0.68
2022-08-09T13:56:22.850Z,0.94
2022-08-09T13:57:37.095Z,0.61
2022-08-09T13:58:35.577Z,0.58
2022-08-09T13:59:42.137Z,0.75
2022-08-09T14:00:46.802Z,0.73
2022-08-09T14:02:01.658Z,0.84
2022-08-09T14:03:04.201Z,0.84
2022-08-09T14:04:04.983Z,0.64
2022-08-09T14:05:00.588Z,0.94
2022-08-09T14:06:19.491Z,0.83
2022-08-09T14:07:16.237Z,0.64
2022-08-09T14:08:18.524Z,0.85
2022-08-09T14:09:22.501Z,0.75
2022-08-09T14:10:45.938Z,0.55
2022-08-09T14:11:30.079Z,0.68
2022-08-09T14:12:33.236Z,0.97
2022-08-09T14:14:22.622Z,0.94
2022-08-09T14:14:40.972Z,2.78
2022-08-09T14:16:10.221Z,1.50
2022-08-09T14:16:49.583Z,1.01
2022-08-09T14:18:16.445Z,1.41
2022-08-09T14:18:58.409Z,1.21
2022-08-09T14:20:02.255Z,2.71
2022-08-09T14:21:08.144Z,1.00
2022-08-09T14:22:11.852Z,2.52
2022-08-09T14:23:20.375Z,2.14
2022-08-09T14:24:32.190Z,1.12
2022-08-09T14:25:23.219Z,1.29
2022-08-09T14:26:31.729Z,1.04
2022-08-09T14:27:56.667Z,1.11
2022-08-09T14:28:39.142Z,1.06
2022-08-09T14:30:34.183Z,1.27
2022-08-09T14:30:47.779Z,1.27
2022-08-09T14:31:53.874Z,1.35
2022-08-09T14:32:56.915Z,1.72
2022-08-09T14:34:00.313Z,1.31
2022-08-09T14:35:06.354Z,1.20
2022-08-09T14:36:19.641Z,1.02
2022-08-09T14:37:13.198Z,1.01
2022-08-09T14:38:16.436Z,1.21
2022-08-09T14:39:19.446Z,1.44
2022-08-09T14:40:28.245Z,1.67
2022-08-09T14:41:39.926Z,2.18
2022-08-09T14:42:32.812Z,2.53
2022-08-09T14:43:46.972Z,3.04
2022-08-09T14:44:48.702Z,3.67
2022-08-09T14:47:01.071Z,3.71
2022-08-09T14:47:04.652Z,3.28
2022-08-09T14:47:57.382Z,1.64
2022-08-09T14:48:57.512Z,1.44
2022-08-09T14:50:02.161Z,1.88
2022-08-09T14:51:04.565Z,1.59
2022-08-09T14:52:07.856Z,1.81
2022-08-09T14:53:12.213Z,1.32
2022-08-09T14:54:15.335Z,1.41